createdAt,value
2023-11-25T00:00:03.409Z,94605.00
2023-11-25T00:01:03.434Z,94598.00
2023-11-25T00:02:03.402Z,94595.00
2023-11-25T00:03:03.351Z,94595.00
2023-11-25T00:04:03.318Z,94595.00
2023-11-25T00:05:06.084Z,94594.00
2023-11-25T00:06:03.308Z,94594.00
2023-11-25T00:07:03.295Z,94591.00
2023-11-25T00:08:03.288Z,94586.00
2023-11-25T00:09:03.253Z,94583.00
2023-11-25T00:10:03.289Z,94583.00
2023-11-25T00:11:07.665Z,94580.00
2023-11-25T00:12:04.241Z,94579.00
2023-11-25T00:13:03.263Z,94578.00
2023-11-25T00:14:03.212Z,94580.00
2023-11-25T00:15:03.193Z,94578.00
2023-11-25T00:16:03.284Z,94578.00
2023-11-25T00:17:03.229Z,94580.00
2023-11-25T00:18:03.241Z,94578.00
2023-11-25T00:19:03.200Z,94575.00
2023-11-25T00:20:03.168Z,94576.00
2023-11-25T00:21:03.143Z,94577.00
2023-11-25T00:22:03.167Z,94574.00
2023-11-25T00:23:03.127Z,94571.00
2023-11-25T00:24:03.137Z,94570.00
2023-11-25T00:25:03.238Z,94573.00
2023-11-25T00:26:03.105Z,94573.00
2023-11-25T00:27:03.099Z,94574.00
2023-11-25T00:28:03.135Z,94572.00
2023-11-25T00:29:03.076Z,94571.00
2023-11-25T00:30:03.080Z,94566.00
2023-11-25T00:31:03.156Z,94569.00
2023-11-25T00:32:03.057Z,94570.00
2023-11-25T00:33:03.111Z,94566.00
2023-11-25T00:34:03.074Z,94569.00
2023-11-25T00:35:03.008Z,94569.00
2023-11-25T00:36:03.018Z,94566.00
2023-11-25T00:37:05.309Z,94563.00
2023-11-25T00:38:03.011Z,94560.00
2023-11-25T00:39:02.978Z,94563.00
2023-11-25T00:40:03.071Z,94560.00
2023-11-25T00:41:02.964Z,94558.00
2023-11-25T00:42:02.959Z,94558.00
2023-11-25T00:43:03.000Z,94556.00
2023-11-25T00:44:02.938Z,94553.00
2023-11-25T00:45:02.927Z,94555.00
2023-11-25T00:46:03.064Z,94560.00
2023-11-25T00:47:03.047Z,94562.00
2023-11-25T00:48:02.977Z,94567.00
2023-11-25T00:49:02.945Z,94570.00
2023-11-25T00:50:02.916Z,94568.00
2023-11-25T00:51:02.877Z,94565.00
2023-11-25T00:52:02.930Z,94567.00
2023-11-25T00:53:02.867Z,94571.00
2023-11-25T00:54:02.901Z,94571.00
2023-11-25T00:55:02.882Z,94573.00
2023-11-25T00:56:02.839Z,94572.00
2023-11-25T00:57:02.813Z,94574.00
2023-11-25T00:58:02.847Z,94573.00
2023-11-25T00:59:02.802Z,94567.00
2023-11-25T01:00:02.811Z,94566.00
2023-11-25T01:01:02.800Z,94566.00
2023-11-25T01:02:02.821Z,94568.00
2023-11-25T01:03:02.803Z,94571.00
2023-11-25T01:04:02.858Z,94578.00
2023-11-25T01:05:02.742Z,94584.00
2023-11-25T01:06:02.746Z,94588.00
2023-11-25T01:07:02.796Z,94588.00
2023-11-25T01:08:02.735Z,94589.00
2023-11-25T01:09:02.696Z,94586.00
2023-11-25T01:10:02.796Z,94583.00
2023-11-25T01:11:02.684Z,94580.00
2023-11-25T01:12:02.692Z,94583.00
2023-11-25T01:13:02.714Z,94582.00
2023-11-25T01:14:02.681Z,94588.00
2023-11-25T01:15:02.647Z,94588.00
2023-11-25T01:16:02.692Z,94591.00
2023-11-25T01:17:02.776Z,94593.00
2023-11-25T01:18:02.697Z,94594.00
2023-11-25T01:19:02.626Z,94591.00
2023-11-25T01:20:02.768Z,94583.00
2023-11-25T01:21:02.599Z,94583.00
2023-11-25T01:22:02.585Z,94588.00
2023-11-25T01:23:02.651Z,94585.00
2023-11-25T01:24:02.574Z,94578.00
2023-11-25T01:25:02.569Z,94572.00
2023-11-25T01:26:02.543Z,94568.00
2023-11-25T01:27:02.542Z,94568.00
2023-11-25T01:28:02.538Z,94575.00
2023-11-25T01:29:02.528Z,94578.00
2023-11-25T01:30:07.638Z,94582.00
2023-11-25T01:31:02.519Z,94580.00
2023-11-25T01:32:02.512Z,94577.00
2023-11-25T01:33:02.523Z,94571.00
2023-11-25T01:34:02.508Z,94570.00
2023-11-25T01:35:02.526Z,94570.00
2023-11-25T01:36:02.491Z,94571.00
2023-11-25T01:37:02.500Z,94564.00
2023-11-25T01:38:02.452Z,94561.00
2023-11-25T01:39:02.432Z,94558.00
2023-11-25T01:40:02.429Z,94557.00
2023-11-25T01:41:05.026Z,94555.00
2023-11-25T01:42:02.643Z,94551.00
2023-11-25T01:43:02.629Z,94544.00
2023-11-25T01:44:02.685Z,94544.00
2023-11-25T01:45:02.623Z,94540.00
2023-11-25T01:46:02.627Z,94539.00
2023-11-25T01:47:02.615Z,94537.00
2023-11-25T01:48:02.604Z,94538.00
2023-11-25T01:49:02.578Z,94535.00
2023-11-25T01:50:02.554Z,94538.00
2023-11-25T01:51:02.573Z,94538.00
2023-11-25T01:52:02.562Z,94537.00
2023-11-25T01:53:02.555Z,94540.00
2023-11-25T01:54:02.515Z,94539.00
2023-11-25T01:55:02.515Z,94537.00
2023-11-25T01:56:02.503Z,94539.00
2023-11-25T01:57:02.501Z,94545.00
2023-11-25T01:58:02.490Z,94558.00
2023-11-25T01:59:02.489Z,94568.00
2023-11-25T02:00:02.460Z,94558.00
2023-11-25T02:01:02.485Z,94562.00
2023-11-25T02:02:02.899Z,94573.00
2023-11-25T02:03:02.619Z,94577.00
2023-11-25T02:04:02.498Z,94571.00
2023-11-25T02:05:02.683Z,94576.00
2023-11-25T02:06:02.401Z,94569.00
2023-11-25T02:07:02.492Z,94568.00
2023-11-25T02:08:02.398Z,94570.00
2023-11-25T02:09:02.462Z,94564.00
2023-11-25T02:10:02.423Z,94557.00
2023-11-25T02:11:02.477Z,94558.00
2023-11-25T02:12:02.429Z,94566.00
2023-11-25T02:13:02.464Z,94571.00
2023-11-25T02:14:02.345Z,94564.00
2023-11-25T02:15:03.330Z,94559.00
2023-11-25T02:16:02.345Z,94560.00
2023-11-25T02:17:02.544Z,94562.00
2023-11-25T02:18:02.335Z,94558.00
2023-11-25T02:19:02.292Z,94562.00
2023-11-25T02:20:02.286Z,94557.00
2023-11-25T02:21:02.285Z,94556.00
2023-11-25T02:22:02.261Z,94556.00
2023-11-25T02:23:02.267Z,94556.00
2023-11-25T02:24:02.235Z,94558.00
2023-11-25T02:25:02.240Z,94557.00
2023-11-25T02:26:05.204Z,94557.00
2023-11-25T02:27:02.225Z,94559.00
2023-11-25T02:28:02.228Z,94562.00
2023-11-25T02:29:02.208Z,94559.00
2023-11-25T02:30:02.192Z,94556.00
2023-11-25T02:31:02.200Z,94559.00
2023-11-25T02:32:02.217Z,94557.00
2023-11-25T02:33:02.207Z,94553.00
2023-11-25T02:34:02.148Z,94546.00
2023-11-25T02:35:02.190Z,94542.00
2023-11-25T02:36:02.140Z,94539.00
2023-11-25T02:37:02.137Z,94540.00
2023-11-25T02:38:02.115Z,94542.00
2023-11-25T02:39:02.836Z,94547.00
2023-11-25T02:40:02.082Z,94544.00
2023-11-25T02:41:02.102Z,94546.00
2023-11-25T02:42:02.086Z,94538.00
2023-11-25T02:43:02.086Z,94538.00
2023-11-25T02:44:02.097Z,94542.00
2023-11-25T02:45:02.059Z,94542.00
2023-11-25T02:46:02.031Z,94553.00
2023-11-25T02:47:02.043Z,94552.00
2023-11-25T02:48:02.133Z,94543.00
2023-11-25T02:49:02.018Z,94548.00
2023-11-25T02:50:01.991Z,94557.00
2023-11-25T02:51:02.024Z,94563.00
2023-11-25T02:52:01.965Z,94580.00
2023-11-25T02:53:01.975Z,94546.00
2023-11-25T02:54:01.986Z,94563.00
2023-11-25T02:55:01.957Z,94550.00
2023-11-25T02:56:01.953Z,94571.00
2023-11-25T02:57:01.934Z,94580.00
2023-11-25T02:58:01.969Z,94593.00
2023-11-25T02:59:01.929Z,94598.00
2023-11-25T03:00:01.983Z,94599.00
2023-11-25T03:01:01.920Z,94609.00
2023-11-25T03:02:01.985Z,94618.00
2023-11-25T03:03:01.944Z,94615.00
2023-11-25T03:04:01.910Z,94620.00
2023-11-25T03:05:01.879Z,94634.00
2023-11-25T03:06:01.850Z,94640.00
2023-11-25T03:07:01.840Z,94644.00
2023-11-25T03:08:01.835Z,94646.00
2023-11-25T03:09:01.829Z,94645.00
2023-11-25T03:10:01.833Z,94643.00
2023-11-25T03:11:01.806Z,94640.00
2023-11-25T03:12:01.794Z,94645.00
2023-11-25T03:13:01.807Z,94640.00
2023-11-25T03:14:01.775Z,94631.00
2023-11-25T03:15:01.808Z,94627.00
2023-11-25T03:16:01.755Z,94642.00
2023-11-25T03:17:01.795Z,94644.00
2023-11-25T03:18:01.774Z,94644.00
2023-11-25T03:19:01.747Z,94651.00
2023-11-25T03:20:01.721Z,94661.00
2023-11-25T03:21:01.732Z,94665.00
2023-11-25T03:22:01.708Z,94669.00
2023-11-25T03:23:01.688Z,94667.00
2023-11-25T03:24:01.753Z,94660.00
2023-11-25T03:25:01.686Z,94670.00
2023-11-25T03:26:01.682Z,94682.00
2023-11-25T03:27:01.661Z,94689.00
2023-11-25T03:28:01.652Z,94691.00
2023-11-25T03:29:01.637Z,94692.00
2023-11-25T03:30:01.630Z,94702.00
2023-11-25T03:31:01.617Z,94704.00
2023-11-25T03:32:01.774Z,94702.00
2023-11-25T03:33:01.653Z,94695.00
2023-11-25T03:34:01.590Z,94691.00
2023-11-25T03:35:02.068Z,94695.00
2023-11-25T03:36:01.573Z,94704.00
2023-11-25T03:37:01.564Z,94718.00
2023-11-25T03:38:01.585Z,94727.00
2023-11-25T03:39:01.536Z,94735.00
2023-11-25T03:40:01.541Z,94737.00
2023-11-25T03:41:01.514Z,94734.00
2023-11-25T03:42:03.032Z,94734.00
2023-11-25T03:43:01.513Z,94730.00
2023-11-25T03:44:01.495Z,94734.00
2023-11-25T03:45:01.493Z,94737.00
2023-11-25T03:46:01.609Z,94735.00
2023-11-25T03:47:01.560Z,94741.00
2023-11-25T03:48:01.481Z,94755.00
2023-11-25T03:49:01.451Z,94759.00
2023-11-25T03:50:01.429Z,94764.00
2023-11-25T03:51:01.478Z,94776.00
2023-11-25T03:52:01.408Z,94784.00
2023-11-25T03:53:01.430Z,94798.00
2023-11-25T03:54:01.395Z,94800.00
2023-11-25T03:55:01.397Z,94802.00
2023-11-25T03:56:01.366Z,94804.00
2023-11-25T03:57:01.376Z,94805.00
2023-11-25T03:58:01.356Z,94811.00
2023-11-25T03:59:01.362Z,94819.00
2023-11-25T04:00:01.327Z,94819.00
2023-11-25T04:01:01.334Z,94827.00
2023-11-25T04:02:01.382Z,94826.00
2023-11-25T04:03:01.364Z,94828.00
2023-11-25T04:04:01.310Z,94833.00
2023-11-25T04:05:01.333Z,94841.00
2023-11-25T04:06:01.275Z,94845.00
2023-11-25T04:07:01.283Z,94843.00
2023-11-25T04:08:06.304Z,94834.00
2023-11-25T04:09:01.256Z,94825.00
2023-11-25T04:10:01.257Z,94822.00
2023-11-25T04:11:01.279Z,94823.00
2023-11-25T04:12:02.223Z,94823.00
2023-11-25T04:13:01.223Z,94826.00
2023-11-25T04:14:01.212Z,94831.00
2023-11-25T04:15:01.192Z,94832.00
2023-11-25T04:16:01.206Z,94836.00
2023-11-25T04:17:01.298Z,94839.00
2023-11-25T04:18:01.274Z,94843.00
2023-11-25T04:19:01.165Z,94846.00
2023-11-25T04:20:01.158Z,94848.00
2023-11-25T04:21:01.170Z,94844.00
2023-11-25T04:22:01.133Z,94846.00
2023-11-25T04:23:01.117Z,94859.00
2023-11-25T04:24:01.112Z,94869.00
2023-11-25T04:25:01.105Z,94875.00
2023-11-25T04:26:01.099Z,94873.00
2023-11-25T04:27:01.099Z,94871.00
2023-11-25T04:28:01.071Z,94871.00
2023-11-25T04:29:01.090Z,94868.00
2023-11-25T04:30:01.061Z,94873.00
2023-11-25T04:31:01.067Z,94874.00
2023-11-25T04:32:01.072Z,94874.00
2023-11-25T04:33:01.080Z,94862.00
2023-11-25T04:34:04.761Z,94876.00
2023-11-25T04:35:01.025Z,94884.00
2023-11-25T04:36:01.007Z,94885.00
2023-11-25T04:37:00.996Z,94894.00
2023-11-25T04:38:00.975Z,94904.00
2023-11-25T04:39:01.008Z,94910.00
2023-11-25T04:40:00.968Z,94901.00
2023-11-25T04:41:01.012Z,94900.00
2023-11-25T04:42:00.970Z,94904.00
2023-11-25T04:43:00.944Z,94924.00
2023-11-25T04:44:00.920Z,94928.00
2023-11-25T04:45:00.948Z,94943.00
2023-11-25T04:46:00.923Z,94909.00
2023-11-25T04:47:00.969Z,94925.00
2023-11-25T04:48:00.915Z,94922.00
2023-11-25T04:49:00.879Z,94916.00
2023-11-25T04:50:00.880Z,94916.00
2023-11-25T04:51:00.871Z,94918.00
2023-11-25T04:52:00.848Z,94917.00
2023-11-25T04:53:00.842Z,94929.00
2023-11-25T04:54:00.924Z,94927.00
2023-11-25T04:55:00.822Z,94925.00
2023-11-25T04:56:00.824Z,94928.00
2023-11-25T04:57:00.828Z,94927.00
2023-11-25T04:58:00.797Z,94926.00
2023-11-25T04:59:00.809Z,94934.00
2023-11-25T05:00:00.788Z,94937.00
2023-11-25T05:01:00.814Z,94925.00
2023-11-25T05:02:00.927Z,94927.00
2023-11-25T05:03:00.796Z,94923.00
2023-11-25T05:04:00.750Z,94926.00
2023-11-25T05:05:00.750Z,94930.00
2023-11-25T05:06:00.717Z,94926.00
2023-11-25T05:07:00.715Z,94919.00
2023-11-25T05:08:00.704Z,94915.00
2023-11-25T05:09:00.713Z,94921.00
2023-11-25T05:10:00.693Z,94928.00
2023-11-25T05:11:00.691Z,94922.00
2023-11-25T05:12:00.753Z,94924.00
2023-11-25T05:13:00.659Z,94927.00
2023-11-25T05:14:00.661Z,94924.00
2023-11-25T05:15:00.639Z,94930.00
2023-11-25T05:16:00.632Z,94932.00
2023-11-25T05:17:00.713Z,94931.00
2023-11-25T05:18:00.647Z,94928.00
2023-11-25T05:19:00.605Z,94934.00
2023-11-25T05:20:00.625Z,94942.00
2023-11-25T05:21:00.582Z,94949.00
2023-11-25T05:22:00.582Z,94948.00
2023-11-25T05:23:00.572Z,94949.00
2023-11-25T05:24:00.561Z,94957.00
2023-11-25T05:25:00.548Z,94961.00
2023-11-25T05:26:00.549Z,94961.00
2023-11-25T05:27:00.525Z,94956.00
2023-11-25T05:28:00.524Z,94960.00
2023-11-25T05:29:00.527Z,94965.00
2023-11-25T05:30:00.505Z,94964.00
2023-11-25T05:31:00.508Z,94972.00
2023-11-25T05:32:00.579Z,94974.00
2023-11-25T05:33:00.536Z,94973.00
2023-11-25T05:34:00.460Z,94975.00
2023-11-25T05:35:00.487Z,94973.00
2023-11-25T05:36:00.444Z,94974.00
2023-11-25T05:37:00.448Z,94974.00
2023-11-25T05:38:00.427Z,94977.00
2023-11-25T05:39:00.425Z,94981.00
2023-11-25T05:40:00.425Z,94985.00
2023-11-25T05:41:00.410Z,94984.00
2023-11-25T05:42:00.384Z,94988.00
2023-11-25T05:43:00.395Z,94991.00
2023-11-25T05:44:00.366Z,94991.00
2023-11-25T05:45:00.368Z,94995.00
2023-11-25T05:46:00.380Z,94990.00
2023-11-25T05:47:00.375Z,94973.00
2023-11-25T05:48:00.463Z,94979.00
2023-11-25T05:49:00.328Z,94985.00
2023-11-25T05:50:00.308Z,94990.00
2023-11-25T05:51:00.302Z,94989.00
2023-11-25T05:52:01.402Z,94989.00
2023-11-25T05:53:00.300Z,94989.00
2023-11-25T05:54:00.281Z,94990.00
2023-11-25T05:55:00.270Z,94991.00
2023-11-25T05:56:00.257Z,94993.00
2023-11-25T05:57:00.248Z,95000.00
2023-11-25T05:58:00.730Z,95002.00
2023-11-25T05:59:00.249Z,95001.00
2023-11-25T06:00:00.231Z,95002.00
2023-11-25T06:01:00.197Z,95002.00
2023-11-25T06:02:00.358Z,95008.00
2023-11-25T06:03:00.208Z,95013.00
2023-11-25T06:04:00.337Z,95018.00
2023-11-25T06:05:00.347Z,95024.00
2023-11-25T06:06:00.214Z,95027.00
2023-11-25T06:07:00.172Z,95029.00
2023-11-25T06:08:00.206Z,95027.00
2023-11-25T06:09:00.189Z,95033.00
2023-11-25T06:10:00.184Z,95041.00
2023-11-25T06:11:00.158Z,95045.00
2023-11-25T06:12:00.120Z,95044.00
2023-11-25T06:13:00.092Z,95043.00
2023-11-25T06:14:02.532Z,95042.00
2023-11-25T06:15:00.184Z,95045.00
2023-11-25T06:16:00.078Z,95045.00
2023-11-25T06:17:00.104Z,95047.00
2023-11-25T06:18:00.108Z,95050.00
2023-11-25T06:19:00.050Z,95055.00
2023-11-25T06:20:00.048Z,95057.00
2023-11-25T06:21:00.030Z,95057.00
2023-11-25T06:22:00.018Z,95059.00
2023-11-25T06:23:00.039Z,95058.00
2023-11-25T06:24:00.008Z,95060.00
2023-11-25T06:25:00.019Z,95063.00
2023-11-25T06:25:59.987Z,95064.00
2023-11-25T06:26:59.967Z,95064.00
2023-11-25T06:27:59.989Z,95064.00
2023-11-25T06:28:59.941Z,95063.00
2023-11-25T06:29:59.971Z,95063.00
2023-11-25T06:30:59.930Z,95060.00
2023-11-25T06:31:59.939Z,95061.00
2023-11-25T06:32:59.973Z,95067.00
2023-11-25T06:33:59.944Z,95063.00
2023-11-25T06:34:59.928Z,95064.00
2023-11-25T06:35:59.918Z,95066.00
2023-11-25T06:36:59.869Z,95066.00
2023-11-25T06:38:00.027Z,95072.00
2023-11-25T06:38:59.917Z,95073.00
2023-11-25T06:39:59.878Z,95071.00
2023-11-25T06:40:59.848Z,95071.00
2023-11-25T06:41:59.850Z,95072.00
2023-11-25T06:42:59.817Z,95071.00
2023-11-25T06:43:59.850Z,95068.00
2023-11-25T06:44:59.790Z,95071.00
2023-11-25T06:45:59.824Z,95072.00
2023-11-25T06:46:59.917Z,95071.00
2023-11-25T06:47:59.807Z,95075.00
2023-11-25T06:48:59.753Z,95083.00
2023-11-25T06:49:59.773Z,95088.00
2023-11-25T06:50:59.847Z,95086.00
2023-11-25T06:51:59.741Z,95089.00
2023-11-25T06:52:59.754Z,95089.00
2023-11-25T06:53:59.721Z,95095.00
2023-11-25T06:54:59.725Z,95093.00
2023-11-25T06:55:59.878Z,95097.00
2023-11-25T06:56:59.690Z,95095.00
2023-11-25T06:57:59.681Z,95099.00
2023-11-25T06:58:59.665Z,95102.00
2023-11-25T06:59:59.681Z,95106.00
2023-11-25T07:00:59.688Z,95109.00
2023-11-25T07:01:59.755Z,95108.00
2023-11-25T07:02:59.656Z,95112.00
2023-11-25T07:03:59.638Z,95114.00
2023-11-25T07:04:59.629Z,95116.00
2023-11-25T07:05:59.622Z,95114.00
2023-11-25T07:06:59.604Z,95107.00
2023-11-25T07:07:59.594Z,95102.00
2023-11-25T07:08:59.582Z,95102.00
2023-11-25T07:09:59.570Z,95102.00
2023-11-25T07:10:59.585Z,95102.00
2023-11-25T07:11:59.568Z,95103.00
2023-11-25T07:12:59.532Z,95105.00
2023-11-25T07:13:59.530Z,95110.00
2023-11-25T07:14:59.518Z,95110.00
2023-11-25T07:15:59.533Z,95114.00
2023-11-25T07:16:59.551Z,95113.00
2023-11-25T07:17:59.709Z,95114.00
2023-11-25T07:18:59.507Z,95111.00
2023-11-25T07:19:59.482Z,95111.00
2023-11-25T07:20:59.467Z,95111.00
2023-11-25T07:21:59.453Z,95113.00
2023-11-25T07:22:59.459Z,95117.00
2023-11-25T07:23:59.436Z,95115.00
2023-11-25T07:24:59.443Z,95115.00
2023-11-25T07:25:59.515Z,95112.00
2023-11-25T07:26:59.418Z,95111.00
2023-11-25T07:27:59.400Z,95114.00
2023-11-25T07:28:59.403Z,95112.00
2023-11-25T07:29:59.378Z,95115.00
2023-11-25T07:30:59.412Z,95115.00
2023-11-25T07:31:59.416Z,95116.00
2023-11-25T07:32:59.397Z,95119.00
2023-11-25T07:33:59.335Z,95120.00
2023-11-25T07:34:59.386Z,95118.00
2023-11-25T07:35:59.332Z,95119.00
2023-11-25T07:36:59.328Z,95117.00
2023-11-25T07:37:59.323Z,95118.00
2023-11-25T07:38:59.293Z,95119.00
2023-11-25T07:39:59.313Z,95121.00
2023-11-25T07:40:59.305Z,95119.00
2023-11-25T07:41:59.489Z,95116.00
2023-11-25T07:42:59.258Z,95114.00
2023-11-25T07:43:59.339Z,95116.00
2023-11-25T07:44:59.233Z,95120.00
2023-11-25T07:45:59.254Z,95118.00
2023-11-25T07:46:59.292Z,95122.00
2023-11-25T07:47:59.260Z,95122.00
2023-11-25T07:48:59.194Z,95121.00
2023-11-25T07:49:59.205Z,95122.00
2023-11-25T07:50:59.207Z,95125.00
2023-11-25T07:51:59.195Z,95124.00
2023-11-25T07:52:59.223Z,95125.00
2023-11-25T07:53:59.180Z,95123.00
2023-11-25T07:54:59.153Z,95123.00
2023-11-25T07:55:59.221Z,95123.00
2023-11-25T07:56:59.181Z,95123.00
2023-11-25T07:57:59.128Z,95125.00
2023-11-25T07:59:02.051Z,95123.00
2023-11-25T07:59:59.102Z,95125.00
2023-11-25T08:00:59.107Z,95122.00
2023-11-25T08:01:59.215Z,95121.00
2023-11-25T08:02:59.248Z,95123.00
2023-11-25T08:03:59.146Z,95125.00
2023-11-25T08:04:59.078Z,95126.00
2023-11-25T08:05:59.059Z,95127.00
2023-11-25T08:06:59.045Z,95125.00
2023-11-25T08:07:59.153Z,95126.00
2023-11-25T08:08:59.041Z,95127.00
2023-11-25T08:09:59.031Z,95126.00
2023-11-25T08:10:59.034Z,95124.00
2023-11-25T08:11:59.003Z,95125.00
2023-11-25T08:13:00.826Z,95123.00
2023-11-25T08:13:59.034Z,95121.00
2023-11-25T08:14:58.961Z,95122.00
2023-11-25T08:15:59.049Z,95125.00
2023-11-25T08:16:58.981Z,95125.00
2023-11-25T08:17:58.981Z,95129.00
2023-11-25T08:18:58.925Z,95128.00
2023-11-25T08:19:58.952Z,95123.00
2023-11-25T08:20:58.906Z,95123.00
2023-11-25T08:21:58.917Z,95118.00
2023-11-25T08:22:58.989Z,95116.00
2023-11-25T08:23:58.883Z,95114.00
2023-11-25T08:24:58.865Z,95113.00
2023-11-25T08:25:58.921Z,95117.00
2023-11-25T08:26:58.848Z,95117.00
2023-11-25T08:27:58.857Z,95117.00
2023-11-25T08:28:58.862Z,95118.00
2023-11-25T08:29:58.839Z,95122.00
2023-11-25T08:30:58.815Z,95128.00
2023-11-25T08:31:58.894Z,95131.00
2023-11-25T08:33:04.002Z,95135.00
2023-11-25T08:33:58.788Z,95136.00
2023-11-25T08:34:58.790Z,95135.00
2023-11-25T08:35:58.770Z,95138.00
2023-11-25T08:36:58.773Z,95138.00
2023-11-25T08:37:58.770Z,95137.00
2023-11-25T08:38:58.756Z,95140.00
2023-11-25T08:39:58.764Z,95141.00
2023-11-25T08:40:58.736Z,95148.00
2023-11-25T08:41:58.719Z,95150.00
2023-11-25T08:42:58.693Z,95154.00
2023-11-25T08:43:58.748Z,95155.00
2023-11-25T08:44:58.699Z,95156.00
2023-11-25T08:45:58.741Z,95160.00
2023-11-25T08:46:58.717Z,95161.00
2023-11-25T08:47:58.674Z,95164.00
2023-11-25T08:48:58.689Z,95162.00
2023-11-25T08:49:58.700Z,95161.00
2023-11-25T08:50:58.646Z,95162.00
2023-11-25T08:51:58.629Z,95162.00
2023-11-25T08:52:58.632Z,95167.00
2023-11-25T08:53:58.621Z,95169.00
2023-11-25T08:54:58.590Z,95172.00
2023-11-25T08:55:58.610Z,95173.00
2023-11-25T08:56:58.581Z,95172.00
2023-11-25T08:57:58.571Z,95172.00
2023-11-25T08:59:06.231Z,95170.00
2023-11-25T08:59:59.572Z,95169.00
2023-11-25T09:00:58.555Z,95170.00
2023-11-25T09:01:58.577Z,95171.00
2023-11-25T09:02:58.590Z,95172.00
2023-11-25T09:03:58.525Z,95173.00
2023-11-25T09:05:06.593Z,95171.00
2023-11-25T09:05:59.539Z,95172.00
2023-11-25T09:06:58.494Z,95173.00
2023-11-25T09:07:58.544Z,95172.00
2023-11-25T09:08:58.466Z,95170.00
2023-11-25T09:09:58.483Z,95166.00
2023-11-25T09:10:58.482Z,95167.00
2023-11-25T09:11:58.448Z,95169.00
2023-11-25T09:12:58.424Z,95169.00
2023-11-25T09:13:58.476Z,95170.00
2023-11-25T09:14:58.412Z,95168.00
2023-11-25T09:15:58.436Z,95160.00
2023-11-25T09:16:58.427Z,95159.00
2023-11-25T09:17:58.438Z,95157.00
2023-11-25T09:19:00.523Z,95155.00
2023-11-25T09:19:58.402Z,95158.00
2023-11-25T09:20:58.386Z,95159.00
2023-11-25T09:21:58.349Z,95158.00
2023-11-25T09:22:58.421Z,95158.00
2023-11-25T09:23:58.337Z,95155.00
2023-11-25T09:24:58.313Z,95153.00
2023-11-25T09:25:58.355Z,95150.00
2023-11-25T09:26:58.312Z,95153.00
2023-11-25T09:27:58.290Z,95155.00
2023-11-25T09:28:58.398Z,95153.00
2023-11-25T09:29:58.276Z,95154.00
2023-11-25T09:30:58.254Z,95156.00
2023-11-25T09:31:58.271Z,95161.00
2023-11-25T09:32:58.314Z,95163.00
2023-11-25T09:33:58.363Z,95160.00
2023-11-25T09:34:58.270Z,95160.00
2023-11-25T09:35:58.222Z,95158.00
2023-11-25T09:36:58.216Z,95160.00
2023-11-25T09:37:58.280Z,95162.00
2023-11-25T09:38:58.194Z,95165.00
2023-11-25T09:39:58.210Z,95167.00
2023-11-25T09:40:58.196Z,95170.00
2023-11-25T09:41:58.189Z,95169.00
2023-11-25T09:42:58.171Z,95172.00
2023-11-25T09:43:58.238Z,95172.00
2023-11-25T09:44:58.125Z,95174.00
2023-11-25T09:45:58.173Z,95177.00
2023-11-25T09:46:58.184Z,95175.00
2023-11-25T09:47:58.132Z,95171.00
2023-11-25T09:48:58.096Z,95169.00
2023-11-25T09:49:58.164Z,95171.00
2023-11-25T09:50:58.079Z,95173.00
2023-11-25T09:51:58.084Z,95172.00
2023-11-25T09:52:58.099Z,95168.00
2023-11-25T09:53:58.073Z,95168.00
2023-11-25T09:54:58.035Z,95171.00
2023-11-25T09:55:58.115Z,95167.00
2023-11-25T09:56:58.025Z,95168.00
2023-11-25T09:57:58.096Z,95167.00
2023-11-25T09:58:58.079Z,95167.00
2023-11-25T09:59:57.991Z,95164.00
2023-11-25T10:00:58.006Z,95166.00
2023-11-25T10:01:58.105Z,95167.00
2023-11-25T10:03:19.170Z,95166.00
2023-11-25T10:03:58.002Z,95162.00
2023-11-25T10:04:57.948Z,95157.00
2023-11-25T10:05:57.945Z,95157.00
2023-11-25T10:06:57.933Z,95157.00
2023-11-25T10:07:57.957Z,95158.00
2023-11-25T10:08:57.914Z,95155.00
2023-11-25T10:09:57.948Z,95157.00
2023-11-25T10:10:57.921Z,95157.00
2023-11-25T10:11:57.912Z,95157.00
2023-11-25T10:12:57.890Z,95157.00
2023-11-25T10:14:01.861Z,95154.00
2023-11-25T10:14:57.849Z,95155.00
2023-11-25T10:15:57.889Z,95155.00
2023-11-25T10:16:57.901Z,95159.00
2023-11-25T10:17:57.856Z,95158.00
2023-11-25T10:18:57.852Z,95158.00
2023-11-25T10:19:57.831Z,95157.00
2023-11-25T10:20:57.819Z,95160.00
2023-11-25T10:21:57.813Z,95160.00
2023-11-25T10:22:58.183Z,95161.00
2023-11-25T10:23:57.774Z,95160.00
2023-11-25T10:24:57.801Z,95158.00
2023-11-25T10:25:57.772Z,95157.00
2023-11-25T10:26:57.770Z,95156.00
2023-11-25T10:27:57.912Z,95154.00
2023-11-25T10:28:57.770Z,95151.00
2023-11-25T10:29:57.714Z,95149.00
2023-11-25T10:30:57.714Z,95152.00
2023-11-25T10:31:57.752Z,95155.00
2023-11-25T10:32:58.217Z,95159.00
2023-11-25T10:33:57.702Z,95160.00
2023-11-25T10:34:57.678Z,95164.00
2023-11-25T10:35:57.663Z,95167.00
2023-11-25T10:36:57.655Z,95166.00
2023-11-25T10:37:57.759Z,95167.00
2023-11-25T10:38:57.669Z,95171.00
2023-11-25T10:39:57.640Z,95168.00
2023-11-25T10:40:57.660Z,95167.00
2023-11-25T10:41:57.634Z,95168.00
2023-11-25T10:42:57.596Z,95164.00
2023-11-25T10:43:57.603Z,95163.00
2023-11-25T10:45:02.675Z,95166.00
2023-11-25T10:45:57.598Z,95166.00
2023-11-25T10:46:57.621Z,95164.00
2023-11-25T10:47:57.622Z,95161.00
2023-11-25T10:48:57.582Z,95162.00
2023-11-25T10:49:57.549Z,95157.00
2023-11-25T10:50:57.551Z,95151.00
2023-11-25T10:51:57.516Z,95144.00
2023-11-25T10:52:57.563Z,95145.00
2023-11-25T10:53:57.514Z,95143.00
2023-11-25T10:54:57.496Z,95141.00
2023-11-25T10:55:57.572Z,95136.00
2023-11-25T10:56:57.477Z,95133.00
2023-11-25T10:57:57.456Z,95140.00
2023-11-25T10:58:57.594Z,95144.00
2023-11-25T10:59:57.457Z,95147.00
2023-11-25T11:00:57.463Z,95150.00
2023-11-25T11:01:57.496Z,95152.00
2023-11-25T11:02:57.538Z,95152.00
2023-11-25T11:03:57.435Z,95151.00
2023-11-25T11:04:57.456Z,95155.00
2023-11-25T11:05:57.409Z,95150.00
2023-11-25T11:06:57.393Z,95149.00
2023-11-25T11:07:57.395Z,95152.00
2023-11-25T11:08:57.393Z,95153.00
2023-11-25T11:09:57.387Z,95152.00
2023-11-25T11:10:57.363Z,95152.00
2023-11-25T11:11:57.345Z,95154.00
2023-11-25T11:12:57.350Z,95152.00
2023-11-25T11:13:57.333Z,95154.00
2023-11-25T11:14:57.334Z,95156.00
2023-11-25T11:15:57.336Z,95158.00
2023-11-25T11:16:57.370Z,95161.00
2023-11-25T11:17:57.370Z,95156.00
2023-11-25T11:18:57.343Z,95154.00
2023-11-25T11:19:57.290Z,95150.00
2023-11-25T11:20:57.262Z,95153.00
2023-11-25T11:21:57.279Z,95157.00
2023-11-25T11:22:57.301Z,95163.00
2023-11-25T11:23:57.239Z,95165.00
2023-11-25T11:24:57.228Z,95163.00
2023-11-25T11:25:57.237Z,95159.00
2023-11-25T11:26:57.207Z,95163.00
2023-11-25T11:27:57.186Z,95165.00
2023-11-25T11:28:57.197Z,95161.00
2023-11-25T11:29:57.185Z,95163.00
2023-11-25T11:30:57.171Z,95167.00
2023-11-25T11:31:57.234Z,95167.00
2023-11-25T11:32:57.170Z,95167.00
2023-11-25T11:33:57.135Z,95161.00
2023-11-25T11:34:57.176Z,95158.00
2023-11-25T11:35:57.110Z,95157.00
2023-11-25T11:36:57.127Z,95158.00
2023-11-25T11:37:58.983Z,95156.00
2023-11-25T11:38:57.091Z,95156.00
2023-11-25T11:39:57.077Z,95155.00
2023-11-25T11:40:57.128Z,95151.00
2023-11-25T11:41:57.066Z,95150.00
2023-11-25T11:42:57.067Z,95152.00
2023-11-25T11:43:57.122Z,95154.00